Etusivu
METAR-TAF:

METAR-TAF

Lentoasemat :

Clermont-Ferrand, Ranska

Leveyspiiri: 45-47N, Pituuspiiri: 003-10E, korkeus merenpinnasta: 332 m

Tämänhetkinen sää

Tämä raportti tehtiin 19 minuuttia sitten, kello 01.00 UTC
Tuuli 1 kn lännestä/lounaasta
Lämpötila 3°C
Kosteus 81%
Ilmanpaine 1022 hPa
Näkyvyys 10 km tai enemmän
ei pilviä alle 1500 m:ssä eikä cumulonimbus-pilviä

METAR: LFLC 200100Z AUTO 25001KT CAVOK 03/00 Q1022 NOSIG

Aika: 02:19 (01:19 UTC)

Sääennuste

Tämä raportti tehtiin 5 tuntia ja 19 minuuttia sitten, kello 20.00 UTC
Ennuste voimassa 19. päivästä klo 21 UTC - 20. päivään klo 21 UTC
Tuuli 3 kn eri suunnista
Näkyvyys 10 km tai enemmän
ei pilviä alle 1500 m:ssä eikä cumulonimbus-pilviä

TAF: LFLC 192000Z 1921/2021 VRB03KT CAVOK

Säähavainnot ja -ennusteet yli 4000 lentoasemalta (METAR- ja TAF-raportit).

Käytössä olevat sääasemat on merkitty karttaan keltaisilla ja punaisilla pisteillä.

Aseta hiiri pisteen päälle nähdäksesi sääaseman nimen.

Klikkaa sitten nähdäksesi säähavainnot ja -ennusteet.

Kartan vaihtaminen: klikkaa mustalla rastilla varustettuja vihreitä pisteitä, niin voit zoomata sisään; viivalla varustettua vihreää pistettä, niin voit zoomata ulos tai vihreitä nuolia, niin pääset viereisille kartoille.


METAR-TAF: